aviador You're here:

SABE Decoded Metar

BUENOS AIRES in ARGENTINA
Report Time2017-10-22 06:00:00
UTC Time2017-10-22 06:37:44
Flight Rules vfr VFR
Wind200° at 07 kt
W.Decomp.*RWY 13: 1.6 kt HW 6.8 kt RCW
W.Rank200° ranks 9
Current wind is below 200° avg. (8.6)
Visibility9999 m
Phenomena:N/A
Clouds:Few 023 Hf
Expected CloudBase > 1,200 ft AGL from Temp-Dew spread
CeilingNone
Temp10°C (ISA -5)
Dew Point07°C (82% RH)
AAT6.8°C
QNH1022 hPa
Density Alt-741 ft
Elevation20 ft
Report Wrong Elevation
Raw Report
SABE 220600Z 20007KT 140V240 9999 FEW023 10/07 Q1022=

Extra information for SABE:More info

Metar Taf Metar & Taf Last 4 Metars F.Rules Stats Wind Profile Meteogram Temp Stats Airport Information Weather charts Add Link Nearby VenuesMetar ALERT Operation Metar Decoded Social comments